AQQ10 IFIS: Internet Flight Information System
logo dgac
Martes 27 de Febrero del 2024
Buscar por aerodromo o helipuerto
Ingrese nombre de aeródromo, localidad o designador OACI:
METAR del 27-02-2024 a las 22:00 UTC
Para mayor información visite www.meteochile.gob.cl
METAR SCCH 272200Z 25007KT 200V280 CAVOK 30/06 Q1011
Viento: dirección 250 grados, velocidad 7 nudos
Viento con dirección variable entre 200 y 280 grados
Visibilidad: 10 km o más,
    sin nubes bajo los 5.000 pies o bajo del MSA (Mínimo de Seguridad del Aeródromo),
    sin cumulonimbus, y sin fenómenos de tiempo significativo en el aeródromo o alrededores
Temperatura: 30 °C
Rocío: 6 °C
Humedad_relativa: 22%
Presión: 1011 hPa
METAR del 27-02-2024 a las 21:00 UTC
Para mayor información visite www.meteochile.gob.cl
METAR SCCH 272100Z 22010KT 200V270 CAVOK 30/07 Q1012
Viento: dirección 220 grados, velocidad 10 nudos
Viento con dirección variable entre 200 y 270 grados
Visibilidad: 10 km o más,
    sin nubes bajo los 5.000 pies o bajo del MSA (Mínimo de Seguridad del Aeródromo),
    sin cumulonimbus, y sin fenómenos de tiempo significativo en el aeródromo o alrededores
Temperatura: 30 °C
Rocío: 7 °C
Humedad_relativa: 24%
Presión: 1012 hPa
METAR del 27-02-2024 a las 20:00 UTC
Para mayor información visite www.meteochile.gob.cl
METAR SCCH 272000Z 25007KT 210V320 CAVOK 30/05 Q1012
Viento: dirección 250 grados, velocidad 7 nudos
Viento con dirección variable entre 210 y 320 grados
Visibilidad: 10 km o más,
    sin nubes bajo los 5.000 pies o bajo del MSA (Mínimo de Seguridad del Aeródromo),
    sin cumulonimbus, y sin fenómenos de tiempo significativo en el aeródromo o alrededores
Temperatura: 30 °C
Rocío: 5 °C
Humedad_relativa: 21%
Presión: 1012 hPa
METAR del 27-02-2024 a las 19:00 UTC
Para mayor información visite www.meteochile.gob.cl
METAR SCCH 271900Z VRB05KT CAVOK 30/07 Q1012
Viento: dirección variable, velocidad 5 nudos
Visibilidad: 10 km o más,
    sin nubes bajo los 5.000 pies o bajo del MSA (Mínimo de Seguridad del Aeródromo),
    sin cumulonimbus, y sin fenómenos de tiempo significativo en el aeródromo o alrededores
Temperatura: 30 °C
Rocío: 7 °C
Humedad_relativa: 24%
Presión: 1012 hPa
METAR del 27-02-2024 a las 18:00 UTC
Para mayor información visite www.meteochile.gob.cl
METAR SCCH 271800Z 19007KT 120V290 CAVOK 30/08 Q1013
Viento: dirección 190 grados, velocidad 7 nudos
Viento con dirección variable entre 120 y 290 grados
Visibilidad: 10 km o más,
    sin nubes bajo los 5.000 pies o bajo del MSA (Mínimo de Seguridad del Aeródromo),
    sin cumulonimbus, y sin fenómenos de tiempo significativo en el aeródromo o alrededores
Temperatura: 30 °C
Rocío: 8 °C
Humedad_relativa: 25%
Presión: 1013 hPa
METAR del 27-02-2024 a las 17:00 UTC
Para mayor información visite www.meteochile.gob.cl
METAR SCCH 271700Z 23007KT 180V270 CAVOK 27/09 Q1014
Viento: dirección 230 grados, velocidad 7 nudos
Viento con dirección variable entre 180 y 270 grados
Visibilidad: 10 km o más,
    sin nubes bajo los 5.000 pies o bajo del MSA (Mínimo de Seguridad del Aeródromo),
    sin cumulonimbus, y sin fenómenos de tiempo significativo en el aeródromo o alrededores
Temperatura: 27 °C
Rocío: 9 °C
Humedad_relativa: 32%
Presión: 1014 hPa
METAR del 27-02-2024 a las 16:00 UTC
Para mayor información visite www.meteochile.gob.cl
METAR SCCH 271600Z 24006KT CAVOK 25/10 Q1014
Viento: dirección 240 grados, velocidad 6 nudos
Visibilidad: 10 km o más,
    sin nubes bajo los 5.000 pies o bajo del MSA (Mínimo de Seguridad del Aeródromo),
    sin cumulonimbus, y sin fenómenos de tiempo significativo en el aeródromo o alrededores
Temperatura: 25 °C
Rocío: 10 °C
Humedad_relativa: 39%
Presión: 1014 hPa
METAR del 27-02-2024 a las 14:00 UTC
Para mayor información visite www.meteochile.gob.cl
METAR SCCH 271400Z 26004KT 180V260 CAVOK 19/10 Q1014
Viento: dirección 260 grados, velocidad 4 nudos
Viento con dirección variable entre 180 y 260 grados
Visibilidad: 10 km o más,
    sin nubes bajo los 5.000 pies o bajo del MSA (Mínimo de Seguridad del Aeródromo),
    sin cumulonimbus, y sin fenómenos de tiempo significativo en el aeródromo o alrededores
Temperatura: 19 °C
Rocío: 10 °C
Humedad_relativa: 56%
Presión: 1014 hPa
METAR del 27-02-2024 a las 13:00 UTC
Para mayor información visite www.meteochile.gob.cl
METAR SCCH 271300Z 22005KT CAVOK 15/10 Q1014
Viento: dirección 220 grados, velocidad 5 nudos
Visibilidad: 10 km o más,
    sin nubes bajo los 5.000 pies o bajo del MSA (Mínimo de Seguridad del Aeródromo),
    sin cumulonimbus, y sin fenómenos de tiempo significativo en el aeródromo o alrededores
Temperatura: 15 °C
Rocío: 10 °C
Humedad_relativa: 72%
Presión: 1014 hPa
METAR del 27-02-2024 a las 12:00 UTC
Para mayor información visite www.meteochile.gob.cl
METAR SCCH 271200Z 22005KT CAVOK 12/10 Q1014
Viento: dirección 220 grados, velocidad 5 nudos
Visibilidad: 10 km o más,
    sin nubes bajo los 5.000 pies o bajo del MSA (Mínimo de Seguridad del Aeródromo),
    sin cumulonimbus, y sin fenómenos de tiempo significativo en el aeródromo o alrededores
Temperatura: 12 °C
Rocío: 10 °C
Humedad_relativa: 88%
Presión: 1014 hPa